Gunilla — SERW — position and weather

sailwx.info

Track history (hours):
 
Tides and Currents Weather Stations Pressure Air Temp Water Temp Dewpoint Dewpoint Depression Visibility Wind Speed Wind Dir Waves Ship Positions

Gunilla (Sweden)

Ship's website: http://www.gunilla.nu/engelsk/frameset_english.htm

Last reported at 2019-Feb-15 03:47 UTC. Time now 2019-Feb-16 04:28 UTC.
Position N 25°27' W 080°04'.

Length 49.4 m; beam 8.4 m; draft 2.7 m.

Type: . MMSI: 265318000.

Date/timePositionNaut miles runAvg speedWind from/ knotsBaromVisibWave heightAir tempDewpointWater temp
2019-Feb-15 03:47N 25°27' W 080°04'1 1.4
2019-Feb-15 03:17N 25°28' W 080°04'1 2.0
2019-Feb-15 02:57N 25°29' W 080°04'1 2.3
2019-Feb-15 02:28N 25°30' W 080°03'1 2.7
2019-Feb-15 02:00N 25°31' W 080°03'1 2.3
2019-Feb-15 01:29N 25°32' W 080°03'1 1.9
2019-Feb-15 01:00N 25°33' W 080°03'1 2.1
2019-Feb-15 00:30N 25°34' W 080°03'1 2.3
2019-Feb-15 00:00N 25°35' W 080°03'1 2.6
2019-Feb-14 23:30N 25°37' W 080°03'1 2.4
2019-Feb-14 23:00N 25°38' W 080°03'1 2.9
2019-Feb-14 22:30N 25°39' W 080°03'2 3.1
2019-Feb-14 22:00N 25°41' W 080°03'2 2.9
2019-Feb-14 21:30N 25°42' W 080°03'1 2.5
2019-Feb-14 21:00N 25°44' W 080°03'1 2.5
2019-Feb-14 20:31N 25°45' W 080°03'2 3.2
2019-Feb-14 20:00N 25°46' W 080°03'2 3.2
2019-Feb-14 19:30N 25°48' W 080°03'2 3.5
2019-Feb-14 19:00N 25°50' W 080°03'2 3.9
2019-Feb-14 18:30N 25°52' W 080°03'2 4.5
2019-Feb-14 18:00N 25°54' W 080°03'2 4.9
2019-Feb-14 17:31N 25°56' W 080°03'2 4.6
2019-Feb-14 17:01N 25°59' W 080°03'2 4.7
2019-Feb-14 16:30N 26°01' W 080°04'2 4.8
2019-Feb-14 16:00N 26°03' W 080°04'3 5.1
2019-Feb-14 15:31N 26°06' W 080°05'2 2.9
2019-Feb-14 14:58N 26°05' W 080°07'0 0.0
2019-Feb-14 14:28N 26°05' W 080°07'0 0.0
2019-Feb-14 13:58N 26°05' W 080°07'0 0.0
2019-Feb-14 13:28N 26°05' W 080°07'0 0.0
2019-Feb-14 12:58N 26°05' W 080°07'0 0.0
2019-Feb-14 12:28N 26°05' W 080°07'0 0.0
2019-Feb-14 11:58N 26°05' W 080°07'0 0.0
2019-Feb-14 11:28N 26°05' W 080°07'0 0.0
2019-Feb-14 10:58N 26°05' W 080°07'0 0.0
2019-Feb-14 10:28N 26°05' W 080°07'0 0.0
2019-Feb-14 09:58N 26°05' W 080°07'0 0.0
2019-Feb-14 09:28N 26°05' W 080°07'0 0.0
2019-Feb-14 08:55N 26°05' W 080°07'0 0.0
2019-Feb-14 08:28N 26°05' W 080°07'0 0.0
2019-Feb-14 07:58N 26°05' W 080°07'0 0.0
2019-Feb-14 07:28N 26°05' W 080°07'0 0.0
2019-Feb-14 06:58N 26°05' W 080°07'0 0.0
2019-Feb-14 06:25N 26°05' W 080°07'0 0.0
2019-Feb-14 05:55N 26°05' W 080°07'0 0.0
2019-Feb-14 05:25N 26°05' W 080°07'0 0.0
2019-Feb-14 04:58N 26°05' W 080°07'0 0.0
2019-Feb-14 04:28N 26°05' W 080°07'0 0.0
2019-Feb-14 03:58N 26°05' W 080°07'0 0.0
2019-Feb-14 02:55N 26°05' W 080°07'0 0.0
2019-Feb-14 02:28N 26°05' W 080°07'0 0.0
2019-Feb-14 01:58N 26°05' W 080°07'0 0.0
2019-Feb-14 01:28N 26°05' W 080°07'0 0.0
2019-Feb-14 00:58N 26°05' W 080°07'0 0.0
2019-Feb-14 00:28N 26°05' W 080°07'0 0.0
2019-Feb-13 23:58N 26°05' W 080°07'0 0.0
2019-Feb-13 23:28N 26°05' W 080°07'0 0.0
2019-Feb-13 22:58N 26°05' W 080°07'0 0.0
2019-Feb-13 22:28N 26°05' W 080°07'0 0.0
2019-Feb-13 21:58N 26°05' W 080°07'0 0.0
2019-Feb-13 21:28N 26°05' W 080°07'0 0.0
2019-Feb-13 20:58N 26°05' W 080°07'0 0.0
2019-Feb-13 20:28N 26°05' W 080°07'0 0.0
2019-Feb-13 19:58N 26°05' W 080°07'0 0.0
2019-Feb-13 19:28N 26°05' W 080°07'0 0.0
2019-Feb-13 18:58N 26°05' W 080°07'0 0.0
2019-Feb-13 18:28N 26°05' W 080°07'0 0.0
2019-Feb-13 17:58N 26°05' W 080°07'0 0.0
2019-Feb-13 17:28N 26°05' W 080°07'0 0.0
2019-Feb-13 16:58N 26°05' W 080°07'0 0.0
2019-Feb-13 16:28N 26°05' W 080°07'0 0.0
2019-Feb-13 15:58N 26°05' W 080°07'0 0.0
2019-Feb-13 15:28N 26°05' W 080°07'0 0.0
2019-Feb-13 14:58N 26°05' W 080°07'0 0.0
2019-Feb-13 14:28N 26°05' W 080°07'0 0.0
2019-Feb-13 13:55N 26°05' W 080°07'0 0.0
2019-Feb-13 13:28N 26°05' W 080°07'0 0.0
2019-Feb-13 12:58N 26°05' W 080°07'0 0.0
2019-Feb-13 12:25N 26°05' W 080°07'0 0.0
2019-Feb-13 11:58N 26°05' W 080°07'0 0.0
2019-Feb-13 11:28N 26°05' W 080°07'0 0.0
2019-Feb-13 10:55N 26°05' W 080°07'0 0.0
2019-Feb-13 10:28N 26°05' W 080°07'0 0.0
2019-Feb-13 09:58N 26°05' W 080°07'0 0.0
2019-Feb-13 09:28N 26°05' W 080°07'0 0.0
2019-Feb-13 08:58N 26°05' W 080°07'0 0.0
2019-Feb-13 08:28N 26°05' W 080°07'0 0.0
2019-Feb-13 07:58N 26°05' W 080°07'0 0.0
2019-Feb-13 07:28N 26°05' W 080°07'0 0.0
2019-Feb-13 06:58N 26°05' W 080°07'0 0.0
2019-Feb-13 06:28N 26°05' W 080°07'0 0.0
2019-Feb-13 05:58N 26°05' W 080°07'0 0.0
2019-Feb-13 05:28N 26°05' W 080°07'0 0.0
2019-Feb-13 04:58N 26°05' W 080°07'0 0.0
2019-Feb-13 04:28N 26°05' W 080°07'0 0.0
2019-Feb-13 03:58N 26°05' W 080°07'0 0.0
2019-Feb-13 03:28N 26°05' W 080°07'0 0.0
2019-Feb-13 02:58N 26°05' W 080°07'0 0.0
2019-Feb-13 02:28N 26°05' W 080°07'0 0.0
2019-Feb-13 01:58N 26°05' W 080°07'0 0.0
2019-Feb-13 01:28N 26°05' W 080°07'0 0.0
2019-Feb-13 00:58N 26°05' W 080°07'0 0.0
2019-Feb-13 00:28N 26°05' W 080°07'0 0.0
2019-Feb-12 23:58N 26°05' W 080°07'0 0.0
2019-Feb-12 23:28N 26°05' W 080°07'0 0.0
2019-Feb-12 22:58N 26°05' W 080°07'0 0.0
2019-Feb-12 22:28N 26°05' W 080°07'0 0.0
2019-Feb-12 21:55N 26°05' W 080°07'0 0.0
2019-Feb-12 21:28N 26°05' W 080°07'0 0.0
2019-Feb-12 20:58N 26°05' W 080°07'0 0.0
2019-Feb-12 20:28N 26°05' W 080°07'0 0.0
2019-Feb-12 19:55N 26°05' W 080°07'0 0.0
2019-Feb-12 19:28N 26°05' W 080°07'0 0.0
2019-Feb-12 18:58N 26°05' W 080°07'0 0.0
2019-Feb-12 18:28N 26°05' W 080°07'0 0.0
2019-Feb-12 17:58N 26°05' W 080°07'0 0.0
2019-Feb-12 17:28N 26°05' W 080°07'0 0.0
2019-Feb-12 16:58N 26°05' W 080°07'0 0.0
2019-Feb-12 16:28N 26°05' W 080°07'0 0.0
2019-Feb-12 15:58N 26°05' W 080°07'0 0.0
2019-Feb-12 15:28N 26°05' W 080°07'0 0.0
2019-Feb-12 14:58N 26°05' W 080°07'0 0.0
2019-Feb-12 14:28N 26°05' W 080°07'0 0.0
2019-Feb-12 13:58N 26°05' W 080°07'0 0.0
2019-Feb-12 13:28N 26°05' W 080°07'0 0.0
2019-Feb-12 12:58N 26°05' W 080°07'0 0.0
2019-Feb-12 12:28N 26°05' W 080°07'0 0.0
2019-Feb-12 11:58N 26°05' W 080°07'0 0.0
2019-Feb-12 11:28N 26°05' W 080°07'0 0.0
2019-Feb-12 10:58N 26°05' W 080°07'0 0.0
2019-Feb-12 10:28N 26°05' W 080°07'0 0.0
2019-Feb-12 09:58N 26°05' W 080°07'0 0.0
2019-Feb-12 09:28N 26°05' W 080°07'0 0.0
2019-Feb-12 08:58N 26°05' W 080°07'0 0.0
2019-Feb-12 08:28N 26°05' W 080°07'0 0.0
2019-Feb-12 07:58N 26°05' W 080°07'0 0.0
2019-Feb-12 07:28N 26°05' W 080°07'0 0.0
2019-Feb-12 06:58N 26°05' W 080°07'0 0.0
2019-Feb-12 06:28N 26°05' W 080°07'0 0.0
2019-Feb-12 05:58N 26°05' W 080°07'0 0.0
2019-Feb-12 05:28N 26°05' W 080°07'0 0.0
2019-Feb-12 04:58N 26°05' W 080°07'0 0.0
2019-Feb-12 04:28N 26°05' W 080°07'0 0.0
2019-Feb-12 03:58N 26°05' W 080°07'0 0.0
2019-Feb-12 03:28N 26°05' W 080°07'0 0.0
2019-Feb-12 02:58N 26°05' W 080°07'0 0.0
2019-Feb-12 02:28N 26°05' W 080°07'0 0.0
2019-Feb-12 01:58N 26°05' W 080°07'0 0.0
2019-Feb-12 01:28N 26°05' W 080°07'0 0.0
2019-Feb-12 00:58N 26°05' W 080°07'0 0.0
2019-Feb-12 00:28N 26°05' W 080°07'0 0.0
2019-Feb-11 23:58N 26°05' W 080°07'0 0.0
2019-Feb-11 23:28N 26°05' W 080°07'0 0.0
2019-Feb-11 22:58N 26°05' W 080°07'0 0.0
2019-Feb-11 22:28N 26°05' W 080°07'0 0.0
2019-Feb-11 21:58N 26°05' W 080°07'0 0.0
2019-Feb-11 21:28N 26°05' W 080°07'0 0.0
2019-Feb-11 20:58N 26°05' W 080°07'0 0.0
2019-Feb-11 20:28N 26°05' W 080°07'0 0.0
2019-Feb-11 19:58N 26°05' W 080°07'0 0.0
2019-Feb-11 19:28N 26°05' W 080°07'0 0.0
2019-Feb-11 18:58N 26°05' W 080°07'0 0.0
2019-Feb-11 18:28N 26°05' W 080°07'0 0.0
2019-Feb-11 17:58N 26°05' W 080°07'0 0.0
2019-Feb-11 17:28N 26°05' W 080°07'0 0.0
2019-Feb-11 16:58N 26°05' W 080°07'0 0.0
2019-Feb-11 16:28N 26°05' W 080°07'0 0.0
2019-Feb-11 15:58N 26°05' W 080°07'0 0.0
2019-Feb-11 15:25N 26°05' W 080°07'0 0.0
2019-Feb-11 14:55N 26°05' W 080°07'0 0.0
2019-Feb-11 14:28N 26°05' W 080°07'0 0.0
2019-Feb-11 13:58N 26°05' W 080°07'0 0.0
2019-Feb-11 13:25N 26°05' W 080°07'0 0.0
2019-Feb-11 12:55N 26°05' W 080°07'0 0.0
2019-Feb-11 12:28N 26°05' W 080°07'0 0.0
2019-Feb-11 11:58N 26°05' W 080°07'0 0.0
2019-Feb-11 11:28N 26°05' W 080°07'0 0.0
2019-Feb-11 10:58N 26°05' W 080°07'0 0.0
2019-Feb-11 10:28N 26°05' W 080°07'0 0.0
2019-Feb-11 09:58N 26°05' W 080°07'0 0.0
2019-Feb-11 09:25N 26°05' W 080°07'0 0.0
2019-Feb-11 08:58N 26°05' W 080°07'0 0.0
2019-Feb-11 08:28N 26°05' W 080°07'0 0.0
2019-Feb-11 07:58N 26°05' W 080°07'0 0.0
2019-Feb-11 07:28N 26°05' W 080°07'0 0.0
2019-Feb-11 06:58N 26°05' W 080°07'0 0.0
2019-Feb-11 06:28N 26°05' W 080°07'0 0.0
2019-Feb-11 05:58N 26°05' W 080°07'0 0.0
2019-Feb-11 05:28N 26°05' W 080°07'0 0.0
2019-Feb-11 04:58N 26°05' W 080°07'0 0.0
2019-Feb-11 04:28N 26°05' W 080°07'0 0.0
2019-Feb-11 03:58N 26°05' W 080°07'0 0.0
2019-Feb-11 03:28N 26°05' W 080°07'0 0.0
2019-Feb-11 02:58N 26°05' W 080°07'0 0.0
2019-Feb-11 02:28N 26°05' W 080°07'0 0.0
2019-Feb-11 01:58N 26°05' W 080°07'0 0.0
2019-Feb-11 01:28N 26°05' W 080°07'0 0.0
2019-Feb-11 00:58N 26°05' W 080°07'0 0.0
2019-Feb-11 00:28N 26°05' W 080°07'0 0.0
2019-Feb-10 23:58N 26°05' W 080°07'0 0.0
2019-Feb-10 23:28N 26°05' W 080°07'0 0.0
2019-Feb-10 22:58N 26°05' W 080°07'0 0.0
2019-Feb-10 22:28N 26°05' W 080°07'0 0.0
2019-Feb-10 21:58N 26°05' W 080°07'0 0.0
2019-Feb-10 21:28N 26°05' W 080°07'0 0.0
2019-Feb-10 20:58N 26°05' W 080°07'0 0.0
2019-Feb-10 20:28N 26°05' W 080°07'0 0.0
2019-Feb-10 19:58N 26°05' W 080°07'0 0.0
2019-Feb-10 19:25N 26°05' W 080°07'0 0.0
2019-Feb-10 18:58N 26°05' W 080°07'0 0.0
2019-Feb-10 18:28N 26°05' W 080°07'0 0.0
2019-Feb-10 17:58N 26°05' W 080°07'0 0.0
2019-Feb-10 17:28N 26°05' W 080°07'0 0.0
2019-Feb-10 16:58N 26°05' W 080°07'0 0.0
2019-Feb-10 16:28N 26°05' W 080°07'0 0.0
2019-Feb-10 15:55N 26°05' W 080°07'0 0.0
2019-Feb-10 15:28N 26°05' W 080°07'0 0.0
2019-Feb-10 14:58N 26°05' W 080°07'0 0.0
2019-Feb-10 14:28N 26°05' W 080°07'0 0.0
2019-Feb-10 13:55N 26°05' W 080°07'0 0.0
2019-Feb-10 13:25N 26°05' W 080°07'0 0.0
2019-Feb-10 12:58N 26°05' W 080°07'0 0.0
2019-Feb-10 12:25N 26°05' W 080°07'0 0.0
2019-Feb-10 11:58N 26°05' W 080°07'0 0.0
2019-Feb-10 11:28N 26°05' W 080°07'0 0.0
2019-Feb-10 10:58N 26°05' W 080°07'0 0.0
2019-Feb-10 10:28N 26°05' W 080°07'0 0.0
2019-Feb-10 09:58N 26°05' W 080°07'0 0.0
2019-Feb-10 09:28N 26°05' W 080°07'0 0.0
2019-Feb-10 08:58N 26°05' W 080°07'0 0.0
2019-Feb-10 08:28N 26°05' W 080°07'0 0.0
2019-Feb-10 07:58N 26°05' W 080°07'0 0.0
2019-Feb-10 07:28N 26°05' W 080°07'0 0.0
2019-Feb-10 06:58N 26°05' W 080°07'0 0.0
2019-Feb-10 06:28N 26°05' W 080°07'0 0.0
2019-Feb-10 05:58N 26°05' W 080°07'0 0.0
2019-Feb-10 05:28N 26°05' W 080°07'0 0.0
2019-Feb-10 04:58N 26°05' W 080°07'0 0.0
2019-Feb-10 04:28N 26°05' W 080°07'0 0.0
2019-Feb-10 03:58N 26°05' W 080°07'0 0.0
2019-Feb-10 03:28N 26°05' W 080°07'0 0.0
2019-Feb-10 02:58N 26°05' W 080°07'0 0.0
2019-Feb-10 02:28N 26°05' W 080°07'0 0.0
2019-Feb-10 01:58N 26°05' W 080°07'0 0.0
2019-Feb-10 01:28N 26°05' W 080°07'0 0.0
2019-Feb-10 00:58N 26°05' W 080°07'0 0.0
2019-Feb-10 00:28N 26°05' W 080°07'0 0.0
2019-Feb-09 23:58N 26°05' W 080°07'0 0.0
2019-Feb-09 23:28N 26°05' W 080°07'0 0.0
2019-Feb-09 22:58N 26°05' W 080°07'0 0.0
2019-Feb-09 22:28N 26°05' W 080°07'0 0.0
2019-Feb-09 21:58N 26°05' W 080°07'0 0.0
2019-Feb-09 21:28N 26°05' W 080°07'0 0.0
2019-Feb-09 20:58N 26°05' W 080°07'0 0.0
2019-Feb-09 20:28N 26°05' W 080°07'0 0.0
2019-Feb-09 19:58N 26°05' W 080°07'0 0.0
2019-Feb-09 19:28N 26°05' W 080°07'0 0.0
2019-Feb-09 18:58N 26°05' W 080°07'0 0.0
2019-Feb-09 18:28N 26°05' W 080°07'0 0.0
2019-Feb-09 17:58N 26°05' W 080°07'0 0.0
2019-Feb-09 17:28N 26°05' W 080°07'0 0.0
2019-Feb-09 16:58N 26°05' W 080°07'0 0.0
2019-Feb-09 16:28N 26°05' W 080°07'0 0.0
2019-Feb-09 15:58N 26°05' W 080°07'0 0.0
2019-Feb-09 15:28N 26°05' W 080°07'0 0.0
2019-Feb-09 14:58N 26°05' W 080°07'0 0.0
2019-Feb-09 14:28N 26°05' W 080°07'0 0.0
2019-Feb-09 13:58N 26°05' W 080°07'0 0.0
2019-Feb-09 13:28N 26°05' W 080°07'0 0.0
2019-Feb-09 12:58N 26°05' W 080°07'0 0.0
2019-Feb-09 12:28N 26°05' W 080°07'0 0.0
2019-Feb-09 11:58N 26°05' W 080°07'0 0.0
2019-Feb-09 11:27N 26°05' W 080°07'0 0.0
2019-Feb-09 10:58N 26°05' W 080°07'0 0.0
2019-Feb-09 10:28N 26°05' W 080°07'0 0.0
2019-Feb-09 09:58N 26°05' W 080°07'0 0.0
2019-Feb-09 09:28N 26°05' W 080°07'0 0.0
2019-Feb-09 08:57N 26°05' W 080°07'0 0.0
2019-Feb-09 08:30N 26°05' W 080°07'0 0.0
2019-Feb-09 07:58N 26°05' W 080°07'0 0.0
2019-Feb-09 07:28N 26°05' W 080°07'0 0.0
2019-Feb-09 06:58N 26°05' W 080°07'0 0.0
2019-Feb-09 06:30N 26°05' W 080°07'0 0.0
2019-Feb-09 05:58N 26°05' W 080°07'0 0.0
2019-Feb-09 05:28N 26°05' W 080°07'0 0.0
2019-Feb-09 05:01N 26°05' W 080°07'0 0.0
2019-Feb-09 04:28N 26°05' W 080°07'0 0.0
2019-Feb-09 03:58N 26°05' W 080°07'0 0.0
2019-Feb-09 03:28N 26°05' W 080°07'0 0.0
2019-Feb-09 03:00N 26°05' W 080°07'0 0.0
2019-Feb-09 02:25N 26°05' W 080°07'0 0.0
2019-Feb-09 01:57N 26°05' W 080°07'0 0.0
2019-Feb-09 01:28N 26°05' W 080°07'0 0.0
2019-Feb-09 01:01N 26°05' W 080°07'0 0.0
2019-Feb-09 00:31N 26°05' W 080°07'0 0.0
2019-Feb-09 00:00N 26°05' W 080°07'0 0.0
2019-Feb-08 23:27N 26°05' W 080°07'0 0.0
2019-Feb-08 22:58N 26°05' W 080°07'0 0.0
2019-Feb-08 22:27N 26°05' W 080°07'0 0.0
2019-Feb-08 21:58N 26°05' W 080°07'0 0.0
2019-Feb-08 21:28N 26°05' W 080°07'0 0.0
2019-Feb-08 21:01N 26°05' W 080°07'0 0.0
2019-Feb-08 20:31N 26°05' W 080°07'0 0.0
2019-Feb-08 20:01N 26°05' W 080°07'0 0.0
2019-Feb-08 19:30N 26°05' W 080°07'0 0.0
2019-Feb-08 19:01N 26°05' W 080°07'0 0.0
2019-Feb-08 18:27N 26°05' W 080°07'0 0.0
2019-Feb-08 18:00N 26°05' W 080°07'0 0.0
2019-Feb-08 17:30N 26°05' W 080°07'0 0.0
2019-Feb-08 17:00N 26°05' W 080°07'0 0.0
2019-Feb-08 16:30N 26°05' W 080°07'0 0.0
2019-Feb-08 16:00N 26°05' W 080°07'0 0.0
2019-Feb-08 15:28N 26°05' W 080°07'0 0.0
2019-Feb-08 14:57N 26°05' W 080°07'0 0.0
2019-Feb-08 14:28N 26°05' W 080°07'0 0.0
2019-Feb-08 13:58N 26°05' W 080°07'0 0.0
2019-Feb-08 13:30N 26°05' W 080°07'1 2.8
2019-Feb-08 13:00N 26°06' W 080°06'3 6.3
2019-Feb-08 12:30N 26°05' W 080°02'1 2.7
2019-Feb-08 12:00N 26°05' W 080°01'2 3.3
2019-Feb-08 11:30N 26°05' W 079°59'1 2.2
2019-Feb-08 11:00N 26°03' W 079°59'1 2.3
2019-Feb-08 10:30N 26°02' W 079°58'1 2.4
2019-Feb-08 10:00N 26°01' W 079°58'1 2.7
2019-Feb-08 09:30N 26°00' W 079°57'1 2.9
2019-Feb-08 09:00N 25°59' W 079°56'1 2.7
2019-Feb-08 08:30N 25°58' W 079°55'1 2.5
2019-Feb-08 08:00N 25°57' W 079°54'1 2.8
2019-Feb-08 07:30N 25°56' W 079°53'2 3.0
2019-Feb-08 07:00N 25°55' W 079°52'1 2.9
2019-Feb-08 06:30N 25°54' W 079°51'1 3.0
2019-Feb-08 06:00N 25°53' W 079°50'1 3.0
2019-Feb-08 05:30N 25°52' W 079°49'2 3.0
2019-Feb-08 04:57N 25°51' W 079°47'1 2.6
2019-Feb-08 04:26N 25°50' W 079°46'1 1.6
2019-Feb-08 03:51N 25°49' W 079°46'1 1.9
2019-Feb-08 03:30N 25°48' W 079°46'1 2.4
2019-Feb-08 03:00N 25°47' W 079°45'2 3.3
2019-Feb-08 02:30N 25°45' W 079°45'2 4.4
2019-Feb-08 02:00N 25°43' W 079°44'2 2.5
2019-Feb-08 01:00N 25°42' W 079°42'0 0.9
2019-Feb-08 00:30N 25°42' W 079°42'1 1.3
2019-Feb-07 23:55N 25°41' W 079°42'2 4.4
2019-Feb-07 23:30N 25°39' W 079°42'4 4.7
2019-Feb-07 22:44N 25°35' W 079°41'  
Track history (hours):
 
Tides and Currents Weather Stations Pressure Air Temp Water Temp Dewpoint Dewpoint Depression Visibility Wind Speed Wind Dir Waves Ship Positions

Gunilla (Sweden)

Ship's website: http://www.gunilla.nu/engelsk/frameset_english.htm

Last reported at 2019-Feb-15 03:47 UTC. Time now 2019-Feb-16 04:28 UTC.
Position N 25°27' W 080°04'.

Length 49.4 m; beam 8.4 m; draft 2.7 m.

Type: . MMSI: 265318000.

Date/timePositionNaut miles runAvg speedWind from/ knotsBaromVisibWave heightAir tempDewpointWater temp
2019-Feb-15 03:47N 25°27' W 080°04'1 1.4
2019-Feb-15 03:17N 25°28' W 080°04'1 2.0
2019-Feb-15 02:57N 25°29' W 080°04'1 2.3
2019-Feb-15 02:28N 25°30' W 080°03'1 2.7
2019-Feb-15 02:00N 25°31' W 080°03'1 2.3
2019-Feb-15 01:29N 25°32' W 080°03'1 1.9
2019-Feb-15 01:00N 25°33' W 080°03'1 2.1
2019-Feb-15 00:30N 25°34' W 080°03'1 2.3
2019-Feb-15 00:00N 25°35' W 080°03'1 2.6
2019-Feb-14 23:30N 25°37' W 080°03'1 2.4
2019-Feb-14 23:00N 25°38' W 080°03'1 2.9
2019-Feb-14 22:30N 25°39' W 080°03'2 3.1
2019-Feb-14 22:00N 25°41' W 080°03'2 2.9
2019-Feb-14 21:30N 25°42' W 080°03'1 2.5
2019-Feb-14 21:00N 25°44' W 080°03'1 2.5
2019-Feb-14 20:31N 25°45' W 080°03'2 3.2
2019-Feb-14 20:00N 25°46' W 080°03'2 3.2
2019-Feb-14 19:30N 25°48' W 080°03'2 3.5
2019-Feb-14 19:00N 25°50' W 080°03'2 3.9
2019-Feb-14 18:30N 25°52' W 080°03'2 4.5
2019-Feb-14 18:00N 25°54' W 080°03'2 4.9
2019-Feb-14 17:31N 25°56' W 080°03'2 4.6
2019-Feb-14 17:01N 25°59' W 080°03'2 4.7
2019-Feb-14 16:30N 26°01' W 080°04'2 4.8
2019-Feb-14 16:00N 26°03' W 080°04'3 5.1
2019-Feb-14 15:31N 26°06' W 080°05'2 2.9
2019-Feb-14 14:58N 26°05' W 080°07'0 0.0
2019-Feb-14 14:28N 26°05' W 080°07'0 0.0
2019-Feb-14 13:58N 26°05' W 080°07'0 0.0
2019-Feb-14 13:28N 26°05' W 080°07'0 0.0
2019-Feb-14 12:58N 26°05' W 080°07'0 0.0
2019-Feb-14 12:28N 26°05' W 080°07'0 0.0
2019-Feb-14 11:58N 26°05' W 080°07'0 0.0
2019-Feb-14 11:28N 26°05' W 080°07'0 0.0
2019-Feb-14 10:58N 26°05' W 080°07'0 0.0
2019-Feb-14 10:28N 26°05' W 080°07'0 0.0
2019-Feb-14 09:58N 26°05' W 080°07'0 0.0
2019-Feb-14 09:28N 26°05' W 080°07'0 0.0
2019-Feb-14 08:55N 26°05' W 080°07'0 0.0
2019-Feb-14 08:28N 26°05' W 080°07'0 0.0
2019-Feb-14 07:58N 26°05' W 080°07'0 0.0
2019-Feb-14 07:28N 26°05' W 080°07'0 0.0
2019-Feb-14 06:58N 26°05' W 080°07'0 0.0
2019-Feb-14 06:25N 26°05' W 080°07'0 0.0
2019-Feb-14 05:55N 26°05' W 080°07'0 0.0
2019-Feb-14 05:25N 26°05' W 080°07'0 0.0
2019-Feb-14 04:58N 26°05' W 080°07'0 0.0
2019-Feb-14 04:28N 26°05' W 080°07'0 0.0
2019-Feb-14 03:58N 26°05' W 080°07'0 0.0
2019-Feb-14 02:55N 26°05' W 080°07'0 0.0
2019-Feb-14 02:28N 26°05' W 080°07'0 0.0
2019-Feb-14 01:58N 26°05' W 080°07'0 0.0
2019-Feb-14 01:28N 26°05' W 080°07'0 0.0
2019-Feb-14 00:58N 26°05' W 080°07'0 0.0
2019-Feb-14 00:28N 26°05' W 080°07'0 0.0
2019-Feb-13 23:58N 26°05' W 080°07'0 0.0
2019-Feb-13 23:28N 26°05' W 080°07'0 0.0
2019-Feb-13 22:58N 26°05' W 080°07'0 0.0
2019-Feb-13 22:28N 26°05' W 080°07'0 0.0
2019-Feb-13 21:58N 26°05' W 080°07'0 0.0
2019-Feb-13 21:28N 26°05' W 080°07'0 0.0
2019-Feb-13 20:58N 26°05' W 080°07'0 0.0
2019-Feb-13 20:28N 26°05' W 080°07'0 0.0
2019-Feb-13 19:58N 26°05' W 080°07'0 0.0
2019-Feb-13 19:28N 26°05' W 080°07'0 0.0
2019-Feb-13 18:58N 26°05' W 080°07'0 0.0
2019-Feb-13 18:28N 26°05' W 080°07'0 0.0
2019-Feb-13 17:58N 26°05' W 080°07'0 0.0
2019-Feb-13 17:28N 26°05' W 080°07'0 0.0
2019-Feb-13 16:58N 26°05' W 080°07'0 0.0
2019-Feb-13 16:28N 26°05' W 080°07'0 0.0
2019-Feb-13 15:58N 26°05' W 080°07'0 0.0
2019-Feb-13 15:28N 26°05' W 080°07'0 0.0
2019-Feb-13 14:58N 26°05' W 080°07'0 0.0
2019-Feb-13 14:28N 26°05' W 080°07'0 0.0
2019-Feb-13 13:55N 26°05' W 080°07'0 0.0
2019-Feb-13 13:28N 26°05' W 080°07'0 0.0
2019-Feb-13 12:58N 26°05' W 080°07'0 0.0
2019-Feb-13 12:25N 26°05' W 080°07'0 0.0
2019-Feb-13 11:58N 26°05' W 080°07'0 0.0
2019-Feb-13 11:28N 26°05' W 080°07'0 0.0
2019-Feb-13 10:55N 26°05' W 080°07'0 0.0
2019-Feb-13 10:28N 26°05' W 080°07'0 0.0
2019-Feb-13 09:58N 26°05' W 080°07'0 0.0
2019-Feb-13 09:28N 26°05' W 080°07'0 0.0
2019-Feb-13 08:58N 26°05' W 080°07'0 0.0
2019-Feb-13 08:28N 26°05' W 080°07'0 0.0
2019-Feb-13 07:58N 26°05' W 080°07'0 0.0
2019-Feb-13 07:28N 26°05' W 080°07'0 0.0
2019-Feb-13 06:58N 26°05' W 080°07'0 0.0
2019-Feb-13 06:28N 26°05' W 080°07'0 0.0
2019-Feb-13 05:58N 26°05' W 080°07'0 0.0
2019-Feb-13 05:28N 26°05' W 080°07'0 0.0
2019-Feb-13 04:58N 26°05' W 080°07'0 0.0
2019-Feb-13 04:28N 26°05' W 080°07'0 0.0
2019-Feb-13 03:58N 26°05' W 080°07'0 0.0
2019-Feb-13 03:28N 26°05' W 080°07'0 0.0
2019-Feb-13 02:58N 26°05' W 080°07'0 0.0
2019-Feb-13 02:28N 26°05' W 080°07'0 0.0
2019-Feb-13 01:58N 26°05' W 080°07'0 0.0
2019-Feb-13 01:28N 26°05' W 080°07'0 0.0
2019-Feb-13 00:58N 26°05' W 080°07'0 0.0
2019-Feb-13 00:28N 26°05' W 080°07'0 0.0
2019-Feb-12 23:58N 26°05' W 080°07'0 0.0
2019-Feb-12 23:28N 26°05' W 080°07'0 0.0
2019-Feb-12 22:58N 26°05' W 080°07'0 0.0
2019-Feb-12 22:28N 26°05' W 080°07'0 0.0
2019-Feb-12 21:55N 26°05' W 080°07'0 0.0
2019-Feb-12 21:28N 26°05' W 080°07'0 0.0
2019-Feb-12 20:58N 26°05' W 080°07'0 0.0
2019-Feb-12 20:28N 26°05' W 080°07'0 0.0
2019-Feb-12 19:55N 26°05' W 080°07'0 0.0
2019-Feb-12 19:28N 26°05' W 080°07'0 0.0
2019-Feb-12 18:58N 26°05' W 080°07'0 0.0
2019-Feb-12 18:28N 26°05' W 080°07'0 0.0
2019-Feb-12 17:58N 26°05' W 080°07'0 0.0
2019-Feb-12 17:28N 26°05' W 080°07'0 0.0
2019-Feb-12 16:58N 26°05' W 080°07'0 0.0
2019-Feb-12 16:28N 26°05' W 080°07'0 0.0
2019-Feb-12 15:58N 26°05' W 080°07'0 0.0
2019-Feb-12 15:28N 26°05' W 080°07'0 0.0
2019-Feb-12 14:58N 26°05' W 080°07'0 0.0
2019-Feb-12 14:28N 26°05' W 080°07'0 0.0
2019-Feb-12 13:58N 26°05' W 080°07'0 0.0
2019-Feb-12 13:28N 26°05' W 080°07'0 0.0
2019-Feb-12 12:58N 26°05' W 080°07'0 0.0
2019-Feb-12 12:28N 26°05' W 080°07'0 0.0
2019-Feb-12 11:58N 26°05' W 080°07'0 0.0
2019-Feb-12 11:28N 26°05' W 080°07'0 0.0
2019-Feb-12 10:58N 26°05' W 080°07'0 0.0
2019-Feb-12 10:28N 26°05' W 080°07'0 0.0
2019-Feb-12 09:58N 26°05' W 080°07'0 0.0
2019-Feb-12 09:28N 26°05' W 080°07'0 0.0
2019-Feb-12 08:58N 26°05' W 080°07'0 0.0
2019-Feb-12 08:28N 26°05' W 080°07'0 0.0
2019-Feb-12 07:58N 26°05' W 080°07'0 0.0
2019-Feb-12 07:28N 26°05' W 080°07'0 0.0
2019-Feb-12 06:58N 26°05' W 080°07'0 0.0
2019-Feb-12 06:28N 26°05' W 080°07'0 0.0
2019-Feb-12 05:58N 26°05' W 080°07'0 0.0
2019-Feb-12 05:28N 26°05' W 080°07'0 0.0
2019-Feb-12 04:58N 26°05' W 080°07'0 0.0
2019-Feb-12 04:28N 26°05' W 080°07'0 0.0
2019-Feb-12 03:58N 26°05' W 080°07'0 0.0
2019-Feb-12 03:28N 26°05' W 080°07'0 0.0
2019-Feb-12 02:58N 26°05' W 080°07'0 0.0
2019-Feb-12 02:28N 26°05' W 080°07'0 0.0
2019-Feb-12 01:58N 26°05' W 080°07'0 0.0
2019-Feb-12 01:28N 26°05' W 080°07'0 0.0
2019-Feb-12 00:58N 26°05' W 080°07'0 0.0
2019-Feb-12 00:28N 26°05' W 080°07'0 0.0
2019-Feb-11 23:58N 26°05' W 080°07'0 0.0
2019-Feb-11 23:28N 26°05' W 080°07'0 0.0
2019-Feb-11 22:58N 26°05' W 080°07'0 0.0
2019-Feb-11 22:28N 26°05' W 080°07'0 0.0
2019-Feb-11 21:58N 26°05' W 080°07'0 0.0
2019-Feb-11 21:28N 26°05' W 080°07'0 0.0
2019-Feb-11 20:58N 26°05' W 080°07'0 0.0
2019-Feb-11 20:28N 26°05' W 080°07'0 0.0
2019-Feb-11 19:58N 26°05' W 080°07'0 0.0
2019-Feb-11 19:28N 26°05' W 080°07'0 0.0
2019-Feb-11 18:58N 26°05' W 080°07'0 0.0
2019-Feb-11 18:28N 26°05' W 080°07'0 0.0
2019-Feb-11 17:58N 26°05' W 080°07'0 0.0
2019-Feb-11 17:28N 26°05' W 080°07'0 0.0
2019-Feb-11 16:58N 26°05' W 080°07'0 0.0
2019-Feb-11 16:28N 26°05' W 080°07'0 0.0
2019-Feb-11 15:58N 26°05' W 080°07'0 0.0
2019-Feb-11 15:25N 26°05' W 080°07'0 0.0
2019-Feb-11 14:55N 26°05' W 080°07'0 0.0
2019-Feb-11 14:28N 26°05' W 080°07'0 0.0
2019-Feb-11 13:58N 26°05' W 080°07'0 0.0
2019-Feb-11 13:25N 26°05' W 080°07'0 0.0
2019-Feb-11 12:55N 26°05' W 080°07'0 0.0
2019-Feb-11 12:28N 26°05' W 080°07'0 0.0
2019-Feb-11 11:58N 26°05' W 080°07'0 0.0
2019-Feb-11 11:28N 26°05' W 080°07'0 0.0
2019-Feb-11 10:58N 26°05' W 080°07'0 0.0
2019-Feb-11 10:28N 26°05' W 080°07'0 0.0
2019-Feb-11 09:58N 26°05' W 080°07'0 0.0
2019-Feb-11 09:25N 26°05' W 080°07'0 0.0
2019-Feb-11 08:58N 26°05' W 080°07'0 0.0
2019-Feb-11 08:28N 26°05' W 080°07'0 0.0
2019-Feb-11 07:58N 26°05' W 080°07'0 0.0
2019-Feb-11 07:28N 26°05' W 080°07'0 0.0
2019-Feb-11 06:58N 26°05' W 080°07'0 0.0
2019-Feb-11 06:28N 26°05' W 080°07'0 0.0
2019-Feb-11 05:58N 26°05' W 080°07'0 0.0
2019-Feb-11 05:28N 26°05' W 080°07'0 0.0
2019-Feb-11 04:58N 26°05' W 080°07'0 0.0
2019-Feb-11 04:28N 26°05' W 080°07'0 0.0
2019-Feb-11 03:58N 26°05' W 080°07'0 0.0
2019-Feb-11 03:28N 26°05' W 080°07'0 0.0
2019-Feb-11 02:58N 26°05' W 080°07'0 0.0
2019-Feb-11 02:28N 26°05' W 080°07'0 0.0
2019-Feb-11 01:58N 26°05' W 080°07'0 0.0
2019-Feb-11 01:28N 26°05' W 080°07'0 0.0
2019-Feb-11 00:58N 26°05' W 080°07'0 0.0
2019-Feb-11 00:28N 26°05' W 080°07'0 0.0
2019-Feb-10 23:58N 26°05' W 080°07'0 0.0
2019-Feb-10 23:28N 26°05' W 080°07'0 0.0
2019-Feb-10 22:58N 26°05' W 080°07'0 0.0
2019-Feb-10 22:28N 26°05' W 080°07'0 0.0
2019-Feb-10 21:58N 26°05' W 080°07'0 0.0
2019-Feb-10 21:28N 26°05' W 080°07'0 0.0
2019-Feb-10 20:58N 26°05' W 080°07'0 0.0
2019-Feb-10 20:28N 26°05' W 080°07'0 0.0
2019-Feb-10 19:58N 26°05' W 080°07'0 0.0
2019-Feb-10 19:25N 26°05' W 080°07'0 0.0
2019-Feb-10 18:58N 26°05' W 080°07'0 0.0
2019-Feb-10 18:28N 26°05' W 080°07'0 0.0
2019-Feb-10 17:58N 26°05' W 080°07'0 0.0
2019-Feb-10 17:28N 26°05' W 080°07'0 0.0
2019-Feb-10 16:58N 26°05' W 080°07'0 0.0
2019-Feb-10 16:28N 26°05' W 080°07'0 0.0
2019-Feb-10 15:55N 26°05' W 080°07'0 0.0
2019-Feb-10 15:28N 26°05' W 080°07'0 0.0
2019-Feb-10 14:58N 26°05' W 080°07'0 0.0
2019-Feb-10 14:28N 26°05' W 080°07'0 0.0
2019-Feb-10 13:55N 26°05' W 080°07'0 0.0
2019-Feb-10 13:25N 26°05' W 080°07'0 0.0
2019-Feb-10 12:58N 26°05' W 080°07'0 0.0
2019-Feb-10 12:25N 26°05' W 080°07'0 0.0
2019-Feb-10 11:58N 26°05' W 080°07'0 0.0
2019-Feb-10 11:28N 26°05' W 080°07'0 0.0
2019-Feb-10 10:58N 26°05' W 080°07'0 0.0
2019-Feb-10 10:28N 26°05' W 080°07'0 0.0
2019-Feb-10 09:58N 26°05' W 080°07'0 0.0
2019-Feb-10 09:28N 26°05' W 080°07'0 0.0
2019-Feb-10 08:58N 26°05' W 080°07'0 0.0
2019-Feb-10 08:28N 26°05' W 080°07'0 0.0
2019-Feb-10 07:58N 26°05' W 080°07'0 0.0
2019-Feb-10 07:28N 26°05' W 080°07'0 0.0
2019-Feb-10 06:58N 26°05' W 080°07'0 0.0
2019-Feb-10 06:28N 26°05' W 080°07'0 0.0
2019-Feb-10 05:58N 26°05' W 080°07'0 0.0
2019-Feb-10 05:28N 26°05' W 080°07'0 0.0
2019-Feb-10 04:58N 26°05' W 080°07'0 0.0
2019-Feb-10 04:28N 26°05' W 080°07'0 0.0
2019-Feb-10 03:58N 26°05' W 080°07'0 0.0
2019-Feb-10 03:28N 26°05' W 080°07'0 0.0
2019-Feb-10 02:58N 26°05' W 080°07'0 0.0
2019-Feb-10 02:28N 26°05' W 080°07'0 0.0
2019-Feb-10 01:58N 26°05' W 080°07'0 0.0
2019-Feb-10 01:28N 26°05' W 080°07'0 0.0
2019-Feb-10 00:58N 26°05' W 080°07'0 0.0
2019-Feb-10 00:28N 26°05' W 080°07'0 0.0
2019-Feb-09 23:58N 26°05' W 080°07'0 0.0
2019-Feb-09 23:28N 26°05' W 080°07'0 0.0
2019-Feb-09 22:58N 26°05' W 080°07'0 0.0
2019-Feb-09 22:28N 26°05' W 080°07'0 0.0
2019-Feb-09 21:58N 26°05' W 080°07'0 0.0
2019-Feb-09 21:28N 26°05' W 080°07'0 0.0
2019-Feb-09 20:58N 26°05' W 080°07'0 0.0
2019-Feb-09 20:28N 26°05' W 080°07'0 0.0
2019-Feb-09 19:58N 26°05' W 080°07'0 0.0
2019-Feb-09 19:28N 26°05' W 080°07'0 0.0
2019-Feb-09 18:58N 26°05' W 080°07'0 0.0
2019-Feb-09 18:28N 26°05' W 080°07'0 0.0
2019-Feb-09 17:58N 26°05' W 080°07'0 0.0
2019-Feb-09 17:28N 26°05' W 080°07'0 0.0
2019-Feb-09 16:58N 26°05' W 080°07'0 0.0
2019-Feb-09 16:28N 26°05' W 080°07'0 0.0
2019-Feb-09 15:58N 26°05' W 080°07'0 0.0
2019-Feb-09 15:28N 26°05' W 080°07'0 0.0
2019-Feb-09 14:58N 26°05' W 080°07'0 0.0
2019-Feb-09 14:28N 26°05' W 080°07'0 0.0
2019-Feb-09 13:58N 26°05' W 080°07'0 0.0
2019-Feb-09 13:28N 26°05' W 080°07'0 0.0
2019-Feb-09 12:58N 26°05' W 080°07'0 0.0
2019-Feb-09 12:28N 26°05' W 080°07'0 0.0
2019-Feb-09 11:58N 26°05' W 080°07'0 0.0
2019-Feb-09 11:27N 26°05' W 080°07'0 0.0
2019-Feb-09 10:58N 26°05' W 080°07'0 0.0
2019-Feb-09 10:28N 26°05' W 080°07'0 0.0
2019-Feb-09 09:58N 26°05' W 080°07'0 0.0
2019-Feb-09 09:28N 26°05' W 080°07'0 0.0
2019-Feb-09 08:57N 26°05' W 080°07'0 0.0
2019-Feb-09 08:30N 26°05' W 080°07'0 0.0
2019-Feb-09 07:58N 26°05' W 080°07'0 0.0
2019-Feb-09 07:28N 26°05' W 080°07'0 0.0
2019-Feb-09 06:58N 26°05' W 080°07'0 0.0
2019-Feb-09 06:30N 26°05' W 080°07'0 0.0
2019-Feb-09 05:58N 26°05' W 080°07'0 0.0
2019-Feb-09 05:28N 26°05' W 080°07'0 0.0
2019-Feb-09 05:01N 26°05' W 080°07'0 0.0
2019-Feb-09 04:28N 26°05' W 080°07'0 0.0
2019-Feb-09 03:58N 26°05' W 080°07'0 0.0
2019-Feb-09 03:28N 26°05' W 080°07'0 0.0
2019-Feb-09 03:00N 26°05' W 080°07'0 0.0
2019-Feb-09 02:25N 26°05' W 080°07'0 0.0
2019-Feb-09 01:57N 26°05' W 080°07'0 0.0
2019-Feb-09 01:28N 26°05' W 080°07'0 0.0
2019-Feb-09 01:01N 26°05' W 080°07'0 0.0
2019-Feb-09 00:31N 26°05' W 080°07'0 0.0
2019-Feb-09 00:00N 26°05' W 080°07'0 0.0
2019-Feb-08 23:27N 26°05' W 080°07'0 0.0
2019-Feb-08 22:58N 26°05' W 080°07'0 0.0
2019-Feb-08 22:27N 26°05' W 080°07'0 0.0
2019-Feb-08 21:58N 26°05' W 080°07'0 0.0
2019-Feb-08 21:28N 26°05' W 080°07'0 0.0
2019-Feb-08 21:01N 26°05' W 080°07'0 0.0
2019-Feb-08 20:31N 26°05' W 080°07'0 0.0
2019-Feb-08 20:01N 26°05' W 080°07'0 0.0
2019-Feb-08 19:30N 26°05' W 080°07'0 0.0
2019-Feb-08 19:01N 26°05' W 080°07'0 0.0
2019-Feb-08 18:27N 26°05' W 080°07'0 0.0
2019-Feb-08 18:00N 26°05' W 080°07'0 0.0
2019-Feb-08 17:30N 26°05' W 080°07'0 0.0
2019-Feb-08 17:00N 26°05' W 080°07'0 0.0
2019-Feb-08 16:30N 26°05' W 080°07'0 0.0
2019-Feb-08 16:00N 26°05' W 080°07'0 0.0
2019-Feb-08 15:28N 26°05' W 080°07'0 0.0
2019-Feb-08 14:57N 26°05' W 080°07'0 0.0
2019-Feb-08 14:28N 26°05' W 080°07'0 0.0
2019-Feb-08 13:58N 26°05' W 080°07'0 0.0
2019-Feb-08 13:30N 26°05' W 080°07'1 2.8
2019-Feb-08 13:00N 26°06' W 080°06'3 6.3
2019-Feb-08 12:30N 26°05' W 080°02'1 2.7
2019-Feb-08 12:00N 26°05' W 080°01'2 3.3
2019-Feb-08 11:30N 26°05' W 079°59'1 2.2
2019-Feb-08 11:00N 26°03' W 079°59'1 2.3
2019-Feb-08 10:30N 26°02' W 079°58'1 2.4
2019-Feb-08 10:00N 26°01' W 079°58'1 2.7
2019-Feb-08 09:30N 26°00' W 079°57'1 2.9
2019-Feb-08 09:00N 25°59' W 079°56'1 2.7
2019-Feb-08 08:30N 25°58' W 079°55'1 2.5
2019-Feb-08 08:00N 25°57' W 079°54'1 2.8
2019-Feb-08 07:30N 25°56' W 079°53'2 3.0
2019-Feb-08 07:00N 25°55' W 079°52'1 2.9
2019-Feb-08 06:30N 25°54' W 079°51'1 3.0
2019-Feb-08 06:00N 25°53' W 079°50'1 3.0
2019-Feb-08 05:30N 25°52' W 079°49'2 3.0
2019-Feb-08 04:57N 25°51' W 079°47'1 2.6
2019-Feb-08 04:26N 25°50' W 079°46'1 1.6
2019-Feb-08 03:51N 25°49' W 079°46'1 1.9
2019-Feb-08 03:30N 25°48' W 079°46'1 2.4
2019-Feb-08 03:00N 25°47' W 079°45'2 3.3
2019-Feb-08 02:30N 25°45' W 079°45'2 4.4
2019-Feb-08 02:00N 25°43' W 079°44'2 2.5
2019-Feb-08 01:00N 25°42' W 079°42'0 0.9
2019-Feb-08 00:30N 25°42' W 079°42'1 1.3
2019-Feb-07 23:55N 25°41' W 079°42'2 4.4
2019-Feb-07 23:30N 25°39' W 079°42'4 4.7
2019-Feb-07 22:44N 25°35' W 079°41'  

Dump ship's entire track history